Campanya meteocatpedra

Dades EMA Malniu (2.230 m)

?
?
Resum diari
Dades diàries de l'estació meteorològica
Temperatura mitjana 5.0 °C
Temperatura màxima 9.5 °C 9:58 TU
Temperatura mínima 2.0 °C 2:50 TU
Humitat relativa mitjana 16%
Precipitació acumulada 0.0 mm
Gruix de neu màxim 13 cm
Ratxa màxima del vent (6 m) 14.4 km/h - 349º 4:37 TU
Irradiació solar global 9.7 MJ/m2

El tram horari està expressat en Temps Universal (TU). Cal sumar una hora en horari d'hivern i dues en horari d'estiu per passar a l'hora oficial.

Malniu (2.230 m)

Metadades estació meteorol´gica
Municipi Meranges
Comarca Cerdanya
Altitud 2230 m
Data alta 03.11.1999
Estat actual Operativa
Dades de període
Període
TU
TM
°C
TX
°C
TN
°C
HRM
%
PPT
mm
GN
cm
VVM (6 m)
km/h
DVM (6 m)
graus
VVX (6 m)
km/h
RS
W/m2
00:00 - 00:30 2.7 2.9 2.5 11 0.0 13 2.2 332 7.6 0
00:30 - 01:00 2.7 3.1 2.5 11 0.0 13 8.3 342 12.6 0
01:00 - 01:30 2.8 3.3 2.2 11 0.0 13 5.8 337 12.2 0
01:30 - 02:00 2.4 2.7 2.1 13 0.0 13 6.1 338 13.7 0
02:00 - 02:30 2.8 3.2 2.3 15 0.0 13 6.1 338 13.3 0
02:30 - 03:00 2.4 2.9 2.0 16 0.0 13 6.1 339 11.5 0
03:00 - 03:30 3.5 4.0 3.0 12 0.0 13 4.3 339 11.2 0
03:30 - 04:00 3.2 3.8 2.8 12 0.0 13 4.7 338 14.0 0
04:00 - 04:30 3.6 3.8 3.3 12 0.0 13 7.6 340 12.6 0
04:30 - 05:00 4.2 4.6 3.8 11 0.0 13 9.4 347 14.4 0
05:00 - 05:30 4.3 4.6 3.9 11 0.0 13 7.9 344 14.0 0
05:30 - 06:00 4.0 4.5 3.6 12 0.0 13 7.2 339 14.0 0
06:00 - 06:30 3.8 4.0 3.2 12 0.0 13 4.0 336 8.6 0
06:30 - 07:00 3.3 3.5 3.1 13 0.0 13 3.2 333 9.4 0
07:00 - 07:30 3.9 4.5 3.3 13 0.0 13 5.4 337 11.2 14
07:30 - 08:00 5.3 5.7 4.5 12 0.0 13 3.6 334 10.8 68
08:00 - 08:30 6.7 8.0 5.7 12 0.0 13 1.8 327 7.9 154
08:30 - 09:00 8.9 9.5 8.1 9 0.0 13 1.1 169 3.6 236
09:00 - 09:30 8.8 9.0 8.6 10 0.0 13 1.8 201 6.5 309
09:30 - 10:00 9.1 9.5 8.6 11 0.0 13 1.8 166 5.8 372
10:00 - 10:30 8.6 9.4 7.7 13 0.0 13 2.9 146 6.5 420
10:30 - 11:00 8.3 9.0 7.6 12 0.0 13 2.9 160 6.8 454
11:00 - 11:30 8.6 9.0 8.3 14 0.0 13 2.2 159 5.8 467
11:30 - 12:00 7.8 8.2 7.6 14 0.0 13 2.9 136 7.2 477
12:00 - 12:30 7.7 7.9 7.2 13 0.0 13 2.5 153 7.2 474
12:30 - 13:00 7.2 7.4 7.0 19 0.0 13 2.5 132 7.2 454
13:00 - 13:30 6.7 7.1 6.2 28 0.0 13 2.5 128 5.8 417
13:30 - 14:00 7.1 7.9 6.4 30 0.0 13 1.4 134 5.0 364
14:00 - 14:30 8.2 8.9 7.8 30 0.0 13 1.4 153 5.0 300
14:30 - 15:00 6.8 7.8 6.2 33 0.0 13 1.4 149 4.3 224
15:00 - 15:30 6.3 6.7 6.1 34 0.0 12 1.1 129 3.6 144
15:30 - 16:00 5.3 6.0 4.8 35 0.0 12 0.4 120 2.5 55
16:00 - 16:30 4.4 4.7 4.1 29 0.0 12 1.1 332 7.2 3
16:30 - 17:00 3.9 4.7 3.6 26 0.0 12 3.2 8 10.8 0
17:00 - 17:30 4.1 4.7 3.7 20 0.0 12 3.6 6 11.5 0
17:30 - 18:00 3.9 4.2 3.7 16 0.0 12 4.7 338 9.7 0
18:00 - 18:30 4.3 4.6 4.0 14 0.0 12 4.7 347 10.4 0
18:30 - 19:00 3.8 4.2 3.5 16 0.0 12 4.0 359 9.7 0
19:00 - 19:30 4.3 4.5 4.1 14 0.0 12 2.5 329 8.3 0
19:30 - 20:00 4.0 4.2 3.8 13 0.0 12 1.1 324 7.2 0
20:00 - 20:30 3.8 4.1 3.7 13 0.0 12 1.4 314 6.1 0
20:30 - 21:00 3.5 3.8 3.3 13 0.0 12 1.4 319 6.5 0
21:00 - 21:30 3.5 3.6 3.2 12 0.0 12 1.4 326 4.7 0
21:30 - 22:00 3.3 3.7 3.1 12 0.0 12 3.6 336 10.1 0
22:00 - 22:30 3.0 3.1 2.8 13 0.0 12 3.6 336 10.1 0
22:30 - 23:00 3.6 3.9 3.2 12 0.0 12 2.5 334 9.0 0
23:00 - 23:30 4.3 4.5 3.9 11 0.0 12 2.2 332 8.6 0
23:30 - 00:00 4.6 4.7 4.5 10 0.0 12 1.8 333 9.0 0

Les dades en taronja només han passat un control de qualitat automàtic. Resta pendent la seva validació definitiva.